createdAt,value
2018-07-14T00:00:18.787Z,2.90
2018-07-14T00:02:47.295Z,2.53
2018-07-14T00:05:15.864Z,2.67
2018-07-14T00:07:44.324Z,2.67
2018-07-14T00:10:12.868Z,2.97
2018-07-14T00:12:41.404Z,2.50
2018-07-14T00:15:09.933Z,2.45
2018-07-14T00:17:38.457Z,2.53
2018-07-14T00:20:07.015Z,2.50
2018-07-14T00:22:35.536Z,2.57
2018-07-14T00:25:04.993Z,2.47
2018-07-14T00:27:33.549Z,2.47
2018-07-14T00:30:02.065Z,2.40
2018-07-14T00:32:30.677Z,2.60
2018-07-14T00:34:59.239Z,2.00
2018-07-14T00:37:27.739Z,2.30
2018-07-14T00:39:56.252Z,2.80
2018-07-14T00:42:24.779Z,2.70
2018-07-14T00:44:53.336Z,2.30
2018-07-14T00:47:21.872Z,2.63
2018-07-14T00:49:50.408Z,2.73
2018-07-14T00:52:18.936Z,2.47
2018-07-14T00:54:48.055Z,2.67
2018-07-14T00:57:16.575Z,2.73
2018-07-14T00:59:45.065Z,2.80
2018-07-14T01:02:13.598Z,2.73
2018-07-14T01:04:42.140Z,2.60
2018-07-14T01:07:10.645Z,2.70
2018-07-14T01:09:39.183Z,2.50
2018-07-14T01:12:07.700Z,2.43
2018-07-14T01:14:36.217Z,2.77
2018-07-14T01:17:04.830Z,2.43
2018-07-14T01:19:33.339Z,2.50
2018-07-14T01:22:01.821Z,2.23
2018-07-14T01:24:30.361Z,2.63
2018-07-14T01:26:58.853Z,2.63
2018-07-14T01:29:27.389Z,2.83
2018-07-14T01:31:55.924Z,2.83
2018-07-14T01:34:24.462Z,2.70
2018-07-14T01:36:52.961Z,2.27
2018-07-14T01:39:21.464Z,2.60
2018-07-14T01:41:49.987Z,2.80
2018-07-14T01:44:18.512Z,2.60
2018-07-14T01:46:47.032Z,2.90
2018-07-14T01:49:15.549Z,2.77
2018-07-14T01:51:44.063Z,2.70
2018-07-14T01:54:12.588Z,2.63
2018-07-14T01:56:41.087Z,2.40
2018-07-14T01:59:09.622Z,2.50
2018-07-14T02:01:38.192Z,2.63
2018-07-14T02:04:06.696Z,2.43
2018-07-14T02:06:35.276Z,2.77
2018-07-14T02:09:04.365Z,2.60
2018-07-14T02:11:32.942Z,3.10
2018-07-14T02:14:01.457Z,2.67
2018-07-14T02:16:29.965Z,2.67
2018-07-14T02:18:58.470Z,2.77
2018-07-14T02:21:27.054Z,2.80
2018-07-14T02:23:55.595Z,2.77
2018-07-14T02:26:24.168Z,2.23
2018-07-14T02:28:52.795Z,2.40
2018-07-14T02:31:21.321Z,2.77
2018-07-14T02:33:49.860Z,2.77
2018-07-14T02:36:18.429Z,2.40
2018-07-14T02:38:46.952Z,2.67
2018-07-14T02:41:15.472Z,2.80
2018-07-14T02:43:44.006Z,2.60
2018-07-14T02:46:12.554Z,2.80
2018-07-14T02:48:41.063Z,2.90
2018-07-14T02:51:09.627Z,2.63
2018-07-14T02:53:38.148Z,2.90
2018-07-14T02:56:06.900Z,2.60
2018-07-14T02:58:35.448Z,2.63
2018-07-14T03:01:03.988Z,3.20
2018-07-14T03:03:32.512Z,2.80
2018-07-14T03:06:01.035Z,3.10
2018-07-14T03:08:29.565Z,2.83
2018-07-14T03:10:58.097Z,2.87
2018-07-14T03:13:26.645Z,2.90
2018-07-14T03:15:55.175Z,2.90
2018-07-14T03:18:23.756Z,2.60
2018-07-14T03:20:52.280Z,3.00
2018-07-14T03:23:20.779Z,2.57
2018-07-14T03:25:49.322Z,2.90
2018-07-14T03:28:17.820Z,2.83
2018-07-14T03:30:46.331Z,2.83
2018-07-14T03:33:14.863Z,2.77
2018-07-14T03:35:43.333Z,3.23
2018-07-14T03:38:11.887Z,2.80
2018-07-14T03:40:40.455Z,2.80
2018-07-14T03:43:08.995Z,3.00
2018-07-14T03:45:37.528Z,2.87
2018-07-14T03:48:06.030Z,3.20
2018-07-14T03:50:34.538Z,3.00
2018-07-14T03:53:03.851Z,3.10
2018-07-14T03:55:32.389Z,2.93
2018-07-14T03:58:00.943Z,3.07
2018-07-14T04:00:29.484Z,3.00
2018-07-14T04:02:58.056Z,2.80
2018-07-14T04:05:26.583Z,2.87
2018-07-14T04:07:55.084Z,2.93
2018-07-14T04:10:23.603Z,3.30
2018-07-14T04:12:52.167Z,2.83
2018-07-14T04:15:20.686Z,3.00
2018-07-14T04:17:55.412Z,3.10
2018-07-14T04:20:23.935Z,3.20
2018-07-14T04:22:52.443Z,3.30
2018-07-14T04:25:20.983Z,3.00
2018-07-14T04:27:49.519Z,3.07
2018-07-14T04:30:18.027Z,2.87
2018-07-14T04:32:46.557Z,2.80
2018-07-14T04:35:15.056Z,2.50
2018-07-14T04:37:43.591Z,2.70
2018-07-14T04:40:12.106Z,2.87
2018-07-14T04:42:40.646Z,2.87
2018-07-14T04:45:09.173Z,3.00
2018-07-14T04:47:37.743Z,2.90
2018-07-14T04:50:06.381Z,2.70
2018-07-14T04:52:34.931Z,2.70
2018-07-14T04:55:05.300Z,2.57
2018-07-14T04:57:33.845Z,2.90
2018-07-14T05:00:02.444Z,2.73
2018-07-14T05:02:30.983Z,2.77
2018-07-14T05:04:59.561Z,2.90
2018-07-14T05:07:28.119Z,2.93
2018-07-14T05:09:56.650Z,2.83
2018-07-14T05:12:25.196Z,2.73
2018-07-14T05:14:53.730Z,2.83
2018-07-14T05:17:22.465Z,2.77
2018-07-14T05:19:50.970Z,2.83
2018-07-14T05:22:19.531Z,2.77
2018-07-14T05:24:48.100Z,2.60
2018-07-14T05:27:16.853Z,2.77
2018-07-14T05:29:45.381Z,2.40
2018-07-14T05:32:13.955Z,2.53
2018-07-14T05:34:42.492Z,2.60
2018-07-14T05:37:11.031Z,2.60
2018-07-14T05:39:39.728Z,2.60
2018-07-14T05:42:08.311Z,2.33
2018-07-14T05:44:37.559Z,2.40
2018-07-14T05:47:06.153Z,2.80
2018-07-14T05:49:34.649Z,2.40
2018-07-14T05:52:04.039Z,2.50
2018-07-14T05:54:32.561Z,2.97
2018-07-14T05:57:01.067Z,2.33
2018-07-14T05:59:30.370Z,2.27
2018-07-14T06:01:58.921Z,2.63
2018-07-14T06:04:28.793Z,2.30
2018-07-14T06:06:57.376Z,2.60
2018-07-14T06:09:25.962Z,2.67
2018-07-14T06:11:54.459Z,2.57
2018-07-14T06:14:23.045Z,2.50
2018-07-14T06:16:51.649Z,2.37
2018-07-14T06:19:20.202Z,2.47
2018-07-14T06:21:48.843Z,2.40
2018-07-14T06:24:17.443Z,2.90
2018-07-14T06:26:46.745Z,2.57
2018-07-14T06:29:15.361Z,2.53
2018-07-14T06:31:44.293Z,2.57
2018-07-14T06:34:13.010Z,2.87
2018-07-14T06:36:41.540Z,2.67
2018-07-14T06:39:10.407Z,2.33
2018-07-14T06:41:39.078Z,2.30
2018-07-14T06:44:07.597Z,2.30
2018-07-14T06:46:36.164Z,2.33
2018-07-14T06:49:06.108Z,2.00
2018-07-14T06:51:34.647Z,2.20
2018-07-14T06:54:03.945Z,2.43
2018-07-14T06:56:32.487Z,1.90
2018-07-14T06:59:00.990Z,1.80
2018-07-14T07:01:29.501Z,2.17
2018-07-14T07:03:58.004Z,2.37
2018-07-14T07:06:26.549Z,2.53
2018-07-14T07:08:55.080Z,2.37
2018-07-14T07:11:23.980Z,2.20
2018-07-14T07:13:53.225Z,2.00
2018-07-14T07:16:21.884Z,2.33
2018-07-14T07:18:50.391Z,2.40
2018-07-14T07:21:18.903Z,2.13
2018-07-14T07:23:47.459Z,2.07
2018-07-14T07:26:16.020Z,2.00
2018-07-14T07:28:44.626Z,1.97
2018-07-14T07:31:13.189Z,1.93
2018-07-14T07:33:41.680Z,2.00
2018-07-14T07:36:10.225Z,2.13
2018-07-14T07:38:38.892Z,1.73
2018-07-14T07:41:07.754Z,1.97
2018-07-14T07:43:40.636Z,1.60
2018-07-14T07:46:09.923Z,1.70
2018-07-14T07:48:41.418Z,1.70
2018-07-14T07:51:09.989Z,1.53
2018-07-14T07:53:38.599Z,1.73
2018-07-14T07:56:07.135Z,1.60
2018-07-14T07:58:35.658Z,1.93
2018-07-14T08:01:04.261Z,1.80
2018-07-14T08:03:33.024Z,1.60
2018-07-14T08:06:01.550Z,1.60
2018-07-14T08:08:30.151Z,1.93
2018-07-14T08:10:58.687Z,1.30
2018-07-14T08:13:27.939Z,1.30
2018-07-14T08:15:57.453Z,1.50
2018-07-14T08:18:27.363Z,1.60
2018-07-14T08:20:55.871Z,1.70
2018-07-14T08:23:24.455Z,1.60
2018-07-14T08:25:53.132Z,1.77
2018-07-14T08:28:22.105Z,1.50
2018-07-14T08:30:50.656Z,1.30
2018-07-14T08:33:21.075Z,1.77
2018-07-14T08:35:49.616Z,1.40
2018-07-14T08:38:18.227Z,1.33
2018-07-14T08:40:47.307Z,1.80
2018-07-14T08:43:15.848Z,1.63
2018-07-14T08:45:44.385Z,1.70
2018-07-14T08:48:12.895Z,1.47
2018-07-14T08:50:41.410Z,1.60
2018-07-14T08:53:11.184Z,1.47
2018-07-14T08:55:39.753Z,1.87
2018-07-14T08:58:08.322Z,1.70
2018-07-14T09:00:36.798Z,1.43
2018-07-14T09:03:06.746Z,1.40
2018-07-14T09:05:35.391Z,1.50
2018-07-14T09:08:04.242Z,1.60
2018-07-14T09:10:33.019Z,9.40
2018-07-14T09:13:01.485Z,4.33
2018-07-14T09:15:30.033Z,19.00
2018-07-14T09:17:58.586Z,15.33
2018-07-14T09:20:27.124Z,24.17
2018-07-14T09:22:55.639Z,26.90
2018-07-14T09:25:24.190Z,25.70
2018-07-14T09:27:52.773Z,19.23
2018-07-14T09:30:21.344Z,21.62
2018-07-14T09:32:49.946Z,22.47
2018-07-14T09:35:18.500Z,17.77
2018-07-14T09:37:47.060Z,16.83
2018-07-14T09:40:15.582Z,16.57
2018-07-14T09:42:44.477Z,16.17
2018-07-14T09:45:12.994Z,12.03
2018-07-14T09:47:41.544Z,13.33
2018-07-14T09:50:10.074Z,9.83
2018-07-14T09:52:38.623Z,10.07
2018-07-14T09:55:07.155Z,11.20
2018-07-14T09:57:35.717Z,9.53
2018-07-14T10:00:04.537Z,9.10
2018-07-14T10:02:33.131Z,8.40
2018-07-14T10:05:01.640Z,6.63
2018-07-14T10:07:30.204Z,6.80
2018-07-14T10:09:58.803Z,6.10
2018-07-14T10:12:27.284Z,4.77
2018-07-14T10:14:56.050Z,5.37
2018-07-14T10:17:24.793Z,5.30
2018-07-14T10:19:53.520Z,4.87
2018-07-14T10:22:22.635Z,4.73
2018-07-14T10:24:51.140Z,1.87
2018-07-14T10:27:19.621Z,3.70
2018-07-14T10:29:48.113Z,3.97
2018-07-14T10:32:16.656Z,3.90
2018-07-14T10:34:45.196Z,2.43
2018-07-14T10:37:13.766Z,2.50
2018-07-14T10:39:42.325Z,2.50
2018-07-14T10:42:11.029Z,1.47
2018-07-14T10:44:40.081Z,2.90
2018-07-14T10:47:08.610Z,2.45
2018-07-14T10:49:37.123Z,2.10
2018-07-14T10:52:05.909Z,1.57
2018-07-14T10:54:34.484Z,2.13
2018-07-14T10:57:04.011Z,2.47
2018-07-14T10:59:32.611Z,1.97
2018-07-14T11:02:01.159Z,3.90
2018-07-14T11:04:29.703Z,1.60
2018-07-14T11:06:58.221Z,1.80
2018-07-14T11:09:26.791Z,1.90
2018-07-14T11:11:55.364Z,1.73
2018-07-14T11:14:23.900Z,2.10
2018-07-14T11:16:52.393Z,1.70
2018-07-14T11:19:20.890Z,1.73
2018-07-14T11:21:49.450Z,1.50
2018-07-14T11:24:17.925Z,1.43
2018-07-14T11:26:46.673Z,1.40
2018-07-14T11:29:15.276Z,1.60
2018-07-14T11:31:43.901Z,1.20
2018-07-14T11:34:12.491Z,1.40
2018-07-14T11:36:41.016Z,1.47
2018-07-14T11:39:09.507Z,1.20
2018-07-14T11:41:38.024Z,1.10
2018-07-14T11:44:07.708Z,1.17
2018-07-14T11:46:36.232Z,1.20
2018-07-14T11:49:04.773Z,1.20
2018-07-14T11:51:33.264Z,1.10
2018-07-14T11:54:01.805Z,1.13
2018-07-14T11:56:30.323Z,0.93
2018-07-14T11:58:58.854Z,1.10
2018-07-14T12:01:27.379Z,0.90
2018-07-14T12:03:55.871Z,1.10
2018-07-14T12:06:24.400Z,1.00
2018-07-14T12:08:52.928Z,0.97
2018-07-14T12:11:21.464Z,1.10
2018-07-14T12:13:49.974Z,0.70
2018-07-14T12:16:18.511Z,1.20
2018-07-14T12:18:47.653Z,0.93
2018-07-14T12:21:16.208Z,0.80
2018-07-14T12:23:44.734Z,0.80
2018-07-14T12:26:13.231Z,1.10
2018-07-14T12:28:41.750Z,0.90
2018-07-14T12:31:10.260Z,0.80
2018-07-14T12:33:38.790Z,0.83
2018-07-14T12:36:07.351Z,1.00
2018-07-14T12:38:35.881Z,1.20
2018-07-14T12:41:05.276Z,0.70
2018-07-14T12:43:33.861Z,0.70
2018-07-14T12:46:02.681Z,1.07
2018-07-14T12:48:31.217Z,0.60
2018-07-14T12:50:59.766Z,0.80
2018-07-14T12:53:28.339Z,0.73
2018-07-14T12:55:56.849Z,0.90
2018-07-14T12:58:25.381Z,0.90
2018-07-14T13:00:53.883Z,0.70
2018-07-14T13:03:22.396Z,0.60
2018-07-14T13:05:50.960Z,0.87
2018-07-14T13:08:19.463Z,0.80
2018-07-14T13:10:48.048Z,0.70
2018-07-14T13:13:16.613Z,0.70
2018-07-14T13:15:45.143Z,0.60
2018-07-14T13:18:13.624Z,0.70
2018-07-14T13:20:42.126Z,0.60
2018-07-14T13:23:10.831Z,0.80
2018-07-14T13:25:45.879Z,0.63
2018-07-14T13:28:14.427Z,0.70
2018-07-14T13:30:42.966Z,0.60
2018-07-14T13:33:11.536Z,0.60
2018-07-14T13:35:40.132Z,0.77
2018-07-14T13:38:08.654Z,0.83
2018-07-14T13:40:37.145Z,0.90
2018-07-14T13:43:05.701Z,0.60
2018-07-14T13:45:34.333Z,0.80
2018-07-14T13:48:03.553Z,0.60
2018-07-14T13:50:32.095Z,0.60
2018-07-14T13:53:00.602Z,0.90
2018-07-14T13:55:29.104Z,0.70
2018-07-14T13:57:57.604Z,1.00
2018-07-14T14:00:26.118Z,0.60
2018-07-14T14:02:54.631Z,0.70
2018-07-14T14:05:23.216Z,0.60
2018-07-14T14:07:51.720Z,0.50
2018-07-14T14:10:20.338Z,0.63
2018-07-14T14:12:48.837Z,0.77
2018-07-14T14:15:17.446Z,0.50
2018-07-14T14:17:45.997Z,0.60
2018-07-14T14:20:14.499Z,0.80
2018-07-14T14:22:43.644Z,0.60
2018-07-14T14:25:14.014Z,0.67
2018-07-14T14:27:42.551Z,0.80
2018-07-14T14:30:11.059Z,0.73
2018-07-14T14:32:39.765Z,0.70
2018-07-14T14:35:08.587Z,0.80
2018-07-14T14:37:37.106Z,0.93
2018-07-14T14:40:05.699Z,0.57
2018-07-14T14:42:34.213Z,0.80
2018-07-14T14:45:02.716Z,0.77
2018-07-14T14:47:31.217Z,1.10
2018-07-14T14:49:59.733Z,0.70
2018-07-14T14:52:28.229Z,0.43
2018-07-14T14:54:56.770Z,0.67
2018-07-14T14:57:25.256Z,0.60
2018-07-14T14:59:53.773Z,0.73
2018-07-14T15:02:22.263Z,0.80
2018-07-14T15:04:51.050Z,0.97
2018-07-14T15:07:19.545Z,0.77
2018-07-14T15:09:48.104Z,1.00
2018-07-14T15:12:16.646Z,1.17
2018-07-14T15:14:45.188Z,1.20
2018-07-14T15:17:13.759Z,1.20
2018-07-14T15:19:42.251Z,1.20
2018-07-14T15:22:10.733Z,1.30
2018-07-14T15:24:39.256Z,0.90
2018-07-14T15:27:07.738Z,0.90
2018-07-14T15:29:36.303Z,1.23
2018-07-14T15:32:04.807Z,1.10
2018-07-14T15:34:33.326Z,1.00
2018-07-14T15:37:01.884Z,1.03
2018-07-14T15:39:30.374Z,1.10
2018-07-14T15:41:58.898Z,1.00
2018-07-14T15:44:27.507Z,1.20
2018-07-14T15:46:56.131Z,1.07
2018-07-14T15:49:24.645Z,0.93
2018-07-14T15:51:53.280Z,1.13
2018-07-14T15:54:21.831Z,0.90
2018-07-14T15:56:50.379Z,1.40
2018-07-14T15:59:18.887Z,1.20
2018-07-14T16:01:47.483Z,1.00
2018-07-14T16:04:16.038Z,1.27
2018-07-14T16:06:45.339Z,1.30
2018-07-14T16:09:13.890Z,2.10
2018-07-14T16:11:42.773Z,2.43
2018-07-14T16:14:11.340Z,2.17
2018-07-14T16:16:39.907Z,1.33
2018-07-14T16:19:08.501Z,1.33
2018-07-14T16:21:37.064Z,1.80
2018-07-14T16:24:06.167Z,2.20
2018-07-14T16:26:34.661Z,1.40
2018-07-14T16:29:03.953Z,1.60
2018-07-14T16:31:32.450Z,2.07
2018-07-14T16:34:00.982Z,1.60
2018-07-14T16:36:29.478Z,1.73
2018-07-14T16:38:57.981Z,1.50
2018-07-14T16:41:26.751Z,1.47
2018-07-14T16:43:55.272Z,1.60
2018-07-14T16:46:23.788Z,1.30
2018-07-14T16:48:52.330Z,1.00
2018-07-14T16:51:20.837Z,1.20
2018-07-14T16:53:49.313Z,1.00
2018-07-14T16:56:17.857Z,1.00
2018-07-14T16:58:47.408Z,1.10
2018-07-14T17:01:15.835Z,1.00
2018-07-14T17:03:44.349Z,0.73
2018-07-14T17:06:12.905Z,0.83
2018-07-14T17:08:41.435Z,0.80
2018-07-14T17:11:09.927Z,0.87
2018-07-14T17:13:38.427Z,1.00
2018-07-14T17:16:06.989Z,1.00
2018-07-14T17:18:35.484Z,0.97
2018-07-14T17:21:04.289Z,0.93
2018-07-14T17:23:32.768Z,1.00
2018-07-14T17:26:01.347Z,0.90
2018-07-14T17:28:29.898Z,1.10
2018-07-14T17:30:58.408Z,1.00
2018-07-14T17:33:26.924Z,1.00
2018-07-14T17:35:55.472Z,1.17
2018-07-14T17:38:24.032Z,1.03
2018-07-14T17:40:52.517Z,1.00
2018-07-14T17:43:21.026Z,1.03
2018-07-14T17:45:50.024Z,1.10
2018-07-14T17:48:18.611Z,1.30
2018-07-14T17:50:47.216Z,1.00
2018-07-14T17:53:15.838Z,1.13
2018-07-14T17:55:44.471Z,0.90
2018-07-14T17:58:13.075Z,1.17
2018-07-14T18:00:41.684Z,1.40
2018-07-14T18:03:10.533Z,1.10
2018-07-14T18:05:39.780Z,1.13
2018-07-14T18:08:08.288Z,1.40
2018-07-14T18:10:36.864Z,1.10
2018-07-14T18:13:05.478Z,1.20
2018-07-14T18:15:35.152Z,1.33
2018-07-14T18:18:04.088Z,1.00
2018-07-14T18:20:32.681Z,0.90
2018-07-14T18:23:01.569Z,0.80
2018-07-14T18:25:30.260Z,1.10
2018-07-14T18:27:58.848Z,0.80
2018-07-14T18:30:27.396Z,0.97
2018-07-14T18:32:55.978Z,1.13
2018-07-14T18:35:24.678Z,1.00
2018-07-14T18:37:53.528Z,0.80
2018-07-14T18:40:22.153Z,0.90
2018-07-14T18:42:50.785Z,0.80
2018-07-14T18:45:19.761Z,0.80
2018-07-14T18:47:48.345Z,1.00
2018-07-14T18:50:17.027Z,0.80
2018-07-14T18:52:45.833Z,0.80
2018-07-14T18:55:14.357Z,1.17
2018-07-14T18:57:43.054Z,1.07
2018-07-14T19:00:11.583Z,0.60
2018-07-14T19:02:40.167Z,0.90
2018-07-14T19:05:08.703Z,1.00
2018-07-14T19:07:37.237Z,0.90
2018-07-14T19:10:05.862Z,0.80
2018-07-14T19:12:34.423Z,0.90
2018-07-14T19:15:03.915Z,0.67
2018-07-14T19:17:32.669Z,0.90
2018-07-14T19:20:01.256Z,1.20
2018-07-14T19:22:29.912Z,0.87
2018-07-14T19:24:58.451Z,1.00
2018-07-14T19:27:26.967Z,0.80
2018-07-14T19:29:55.534Z,0.90
2018-07-14T19:32:24.300Z,0.80
2018-07-14T19:34:52.875Z,0.90
2018-07-14T19:37:21.396Z,0.80
2018-07-14T19:39:49.988Z,0.73
2018-07-14T19:42:18.577Z,1.20
2018-07-14T19:44:47.204Z,1.37
2018-07-14T19:47:15.811Z,1.30
2018-07-14T19:49:44.684Z,0.93
2018-07-14T19:52:13.280Z,1.37
2018-07-14T19:54:41.972Z,1.10
2018-07-14T19:57:10.718Z,1.40
2018-07-14T19:59:39.307Z,0.80
2018-07-14T20:02:07.856Z,1.10
2018-07-14T20:04:36.782Z,1.10
2018-07-14T20:07:05.950Z,1.30
2018-07-14T20:09:34.698Z,1.10
2018-07-14T20:12:04.282Z,1.47
2018-07-14T20:14:32.881Z,1.20
2018-07-14T20:17:01.670Z,1.17
2018-07-14T20:19:30.617Z,1.07
2018-07-14T20:21:59.439Z,1.17
2018-07-14T20:24:27.992Z,0.90
2018-07-14T20:26:56.734Z,1.03
2018-07-14T20:29:25.309Z,1.47
2018-07-14T20:31:54.159Z,1.10
2018-07-14T20:34:22.730Z,1.17
2018-07-14T20:36:51.376Z,1.40
2018-07-14T20:39:20.196Z,1.05
2018-07-14T20:41:49.335Z,1.00
2018-07-14T20:44:18.316Z,1.10
2018-07-14T20:46:47.023Z,1.30
2018-07-14T20:49:15.916Z,1.10
2018-07-14T20:51:44.596Z,1.00
2018-07-14T20:54:13.204Z,1.53
2018-07-14T20:56:41.782Z,1.10
2018-07-14T20:59:10.329Z,1.00
2018-07-14T21:01:38.955Z,1.10
2018-07-14T21:04:07.937Z,1.10
2018-07-14T21:06:36.669Z,1.20
2018-07-14T21:09:05.904Z,0.90
2018-07-14T21:11:34.696Z,1.00
2018-07-14T21:14:04.068Z,0.90
2018-07-14T21:16:32.708Z,0.93
2018-07-14T21:19:01.271Z,1.30
2018-07-14T21:21:29.852Z,1.30
2018-07-14T21:23:58.451Z,1.00
2018-07-14T21:26:26.990Z,1.20
2018-07-14T21:28:55.671Z,1.20
2018-07-14T21:31:24.289Z,1.07
2018-07-14T21:33:52.915Z,1.13
2018-07-14T21:36:22.116Z,1.10
2018-07-14T21:38:50.698Z,1.30
2018-07-14T21:41:19.262Z,1.00
2018-07-14T21:43:47.938Z,1.00
2018-07-14T21:46:16.497Z,0.87
2018-07-14T21:48:45.614Z,1.10
2018-07-14T21:51:14.301Z,1.00
2018-07-14T21:53:42.924Z,0.87
2018-07-14T21:56:11.795Z,0.90
2018-07-14T21:58:40.413Z,0.90
2018-07-14T22:01:14.513Z,1.10
2018-07-14T22:03:43.675Z,0.73
2018-07-14T22:06:12.368Z,1.20
2018-07-14T22:08:41.867Z,0.97
2018-07-14T22:11:10.548Z,1.73
2018-07-14T22:13:39.243Z,1.53
2018-07-14T22:16:08.207Z,1.10
2018-07-14T22:18:36.773Z,1.17
2018-07-14T22:21:05.445Z,0.83
2018-07-14T22:23:34.036Z,1.03
2018-07-14T22:26:03.364Z,1.10
2018-07-14T22:28:31.907Z,1.27
2018-07-14T22:31:00.467Z,1.10
2018-07-14T22:33:29.011Z,1.20
2018-07-14T22:35:57.601Z,1.13
2018-07-14T22:38:26.178Z,1.57
2018-07-14T22:40:54.708Z,1.37
2018-07-14T22:43:23.361Z,2.30
2018-07-14T22:45:52.032Z,1.70
2018-07-14T22:48:20.607Z,1.57
2018-07-14T22:50:49.216Z,1.50
2018-07-14T22:53:18.275Z,1.70
2018-07-14T22:55:46.864Z,1.50
2018-07-14T22:58:15.481Z,1.90
2018-07-14T23:00:44.390Z,1.70
2018-07-14T23:03:15.697Z,1.60
2018-07-14T23:05:44.307Z,2.00
2018-07-14T23:08:12.887Z,1.80
2018-07-14T23:10:41.527Z,1.37
2018-07-14T23:13:10.311Z,1.37
2018-07-14T23:15:38.913Z,1.40
2018-07-14T23:18:07.536Z,1.60
2018-07-14T23:20:36.102Z,1.50
2018-07-14T23:23:04.664Z,2.07
2018-07-14T23:25:33.259Z,1.87
2018-07-14T23:28:01.877Z,1.60
2018-07-14T23:30:30.745Z,1.53
2018-07-14T23:32:59.368Z,1.57
2018-07-14T23:35:28.696Z,1.90
2018-07-14T23:37:57.312Z,2.33
2018-07-14T23:40:25.889Z,1.70
2018-07-14T23:42:54.498Z,1.50
2018-07-14T23:45:23.168Z,1.40
2018-07-14T23:47:51.745Z,1.70
2018-07-14T23:50:20.336Z,1.90
2018-07-14T23:52:49.007Z,2.00
2018-07-14T23:55:17.717Z,1.57
2018-07-14T23:57:46.352Z,1.37
